Bonkita Airport


Codes: FZBF/
Name: Bonkita Airport
City: Bonkita
Country: Congo [DRC]
Elevation: 931 ft.

Photos at Bonkita Airport


   Photos courtesy of SpottingLog. You can add your own sightings and photos by signing up for a free trial today.



No photos found.

Weather at Bonkita Airport


Time (UTC)DescriptionTempratureWindCloud coverageVisibilityPressureHumidity
26-Jun-2024 00:00Broken Clouds23°C2 mph, E55%10000m1009hPa49%
26-Jun-2024 03:00Broken Clouds24°C2 mph, E66%10000m1009hPa47%
26-Jun-2024 06:00Broken Clouds24°C2 mph, SE79%10000m1010hPa45%
26-Jun-2024 09:00Broken Clouds34°C4 mph, SE81%10000m1011hPa22%
26-Jun-2024 12:00Scattered Clouds37°C4 mph, SE43%10000m1007hPa17%
26-Jun-2024 15:00Clear Sky37°C2 mph, SE1%10000m1006hPa18%
26-Jun-2024 18:00Clear Sky28°C0 mph, NW0%10000m1008hPa31%
26-Jun-2024 21:00Clear Sky25°C2 mph, E3%10000m1009hPa37%
27-Jun-2024 00:00Clear Sky23°C2 mph, E7%10000m1009hPa42%
27-Jun-2024 03:00Broken Clouds21°C2 mph, E66%10000m1009hPa47%
27-Jun-2024 06:00Broken Clouds24°C2 mph, S70%10000m1011hPa44%
27-Jun-2024 09:00Overcast Clouds34°C4 mph, SE100%10000m1011hPa19%
27-Jun-2024 12:00Overcast Clouds38°C4 mph, SE100%10000m1008hPa14%
27-Jun-2024 15:00Overcast Clouds37°C2 mph, SE99%10000m1006hPa15%
27-Jun-2024 18:00Broken Clouds28°C2 mph, SW77%10000m1008hPa27%
27-Jun-2024 21:00Few Clouds25°C0 mph, E24%10000m1009hPa31%
28-Jun-2024 00:00Scattered Clouds23°C2 mph, SE46%10000m1009hPa37%
28-Jun-2024 03:00Broken Clouds22°C0 mph, E73%10000m1009hPa39%
28-Jun-2024 06:00Broken Clouds23°C2 mph, S61%10000m1012hPa39%
28-Jun-2024 09:00Broken Clouds35°C4 mph, SE68%10000m1011hPa18%
28-Jun-2024 12:00Broken Clouds39°C4 mph, SE83%10000m1007hPa14%
28-Jun-2024 15:00Overcast Clouds38°C2 mph, SE100%10000m1006hPa15%
28-Jun-2024 18:00Overcast Clouds29°C2 mph, NW100%10000m1008hPa26%
28-Jun-2024 21:00Overcast Clouds25°C2 mph, NE100%10000m1009hPa33%
29-Jun-2024 00:00Overcast Clouds23°C0 mph, S97%10000m1009hPa38%
29-Jun-2024 03:00Broken Clouds22°C0 mph, NW52%10000m1010hPa41%
29-Jun-2024 06:00Scattered Clouds23°C2 mph, SW47%10000m1012hPa40%
29-Jun-2024 09:00Overcast Clouds34°C2 mph, W93%10000m1012hPa27%
29-Jun-2024 12:00Broken Clouds39°C0 mph, NW55%10000m1008hPa19%
29-Jun-2024 15:00Clear Sky37°C2 mph, NE9%10000m1006hPa19%
29-Jun-2024 18:00Clear Sky28°C2 mph, NE8%10000m1009hPa34%
29-Jun-2024 21:00Scattered Clouds25°C2 mph, NW36%10000m1011hPa46%
30-Jun-2024 00:00Broken Clouds24°C2 mph, NW68%10000m1010hPa52%
30-Jun-2024 03:00Overcast Clouds22°C2 mph, NW100%10000m1010hPa63%
30-Jun-2024 06:00Overcast Clouds24°C2 mph, W100%10000m1012hPa62%
30-Jun-2024 09:00Overcast Clouds33°C4 mph, W99%10000m1012hPa39%
30-Jun-2024 12:00Overcast Clouds38°C2 mph, NW86%10000m1008hPa25%
30-Jun-2024 15:00Overcast Clouds33°C4 mph, SW98%10000m1007hPa35%
30-Jun-2024 18:00Overcast Clouds30°C0 mph, SW99%10000m1009hPa37%
30-Jun-2024 21:00Broken Clouds27°C0 mph, W68%10000m1010hPa44%